createdAt,value
2023-02-09T00:02:48.417Z,12.35
2023-02-09T00:05:50.643Z,13.60
2023-02-09T00:08:53.507Z,12.03
2023-02-09T00:12:14.196Z,12.88
2023-02-09T00:15:16.293Z,12.25
2023-02-09T00:18:18.709Z,11.80
2023-02-09T00:21:20.879Z,12.20
2023-02-09T00:24:23.228Z,13.27
2023-02-09T00:27:25.524Z,12.73
2023-02-09T00:30:27.781Z,13.43
2023-02-09T00:33:30.017Z,13.70
2023-02-09T00:36:32.394Z,13.55
2023-02-09T00:39:34.603Z,13.60
2023-02-09T00:42:36.828Z,14.43
2023-02-09T00:45:39.006Z,13.55
2023-02-09T00:48:41.327Z,13.80
2023-02-09T00:51:43.821Z,13.02
2023-02-09T00:54:46.191Z,13.48
2023-02-09T00:57:48.423Z,14.05
2023-02-09T01:00:50.716Z,13.93
2023-02-09T01:03:53.097Z,14.18
2023-02-09T01:06:55.977Z,13.15
2023-02-09T01:09:59.956Z,14.30
2023-02-09T01:13:02.632Z,14.07
2023-02-09T01:16:06.787Z,13.52
2023-02-09T01:19:11.823Z,14.23
2023-02-09T01:22:16.400Z,13.57
2023-02-09T01:25:20.345Z,14.55
2023-02-09T01:28:22.615Z,14.05
2023-02-09T01:31:30.590Z,14.75
2023-02-09T01:34:32.984Z,15.10
2023-02-09T01:37:36.013Z,15.35
2023-02-09T01:40:38.278Z,15.60
2023-02-09T01:43:50.769Z,14.93
2023-02-09T01:46:54.138Z,14.32
2023-02-09T01:49:56.496Z,14.53
2023-02-09T01:52:58.729Z,15.02
2023-02-09T01:56:12.736Z,15.80
2023-02-09T01:59:16.212Z,15.27
2023-02-09T02:02:19.264Z,15.13
2023-02-09T02:05:24.683Z,14.60
2023-02-09T02:08:41.732Z,15.45
2023-02-09T02:11:47.133Z,15.27
2023-02-09T02:14:49.531Z,15.40
2023-02-09T02:18:15.375Z,15.18
2023-02-09T02:21:32.793Z,15.13
2023-02-09T02:24:53.744Z,15.20
2023-02-09T02:28:18.959Z,14.75
2023-02-09T02:31:42.438Z,14.38
2023-02-09T02:34:59.659Z,14.82
2023-02-09T02:38:33.736Z,15.70
2023-02-09T02:42:07.618Z,14.82
2023-02-09T02:45:32.723Z,14.83
2023-02-09T02:48:40.141Z,14.93
2023-02-09T02:51:44.529Z,15.05
2023-02-09T02:54:50.955Z,15.33
2023-02-09T02:57:58.913Z,15.45
2023-02-09T03:01:02.880Z,15.05
2023-02-09T03:04:06.392Z,14.90
2023-02-09T03:07:08.904Z,16.02
2023-02-09T03:10:36.108Z,14.82
2023-02-09T03:13:47.572Z,14.38
2023-02-09T03:17:07.986Z,14.53
2023-02-09T03:20:28.903Z,14.63
2023-02-09T03:23:32.836Z,13.95
2023-02-09T03:26:45.147Z,14.87
2023-02-09T03:29:50.195Z,14.02
2023-02-09T03:32:58.778Z,15.00
2023-02-09T03:36:02.163Z,15.38
2023-02-09T03:39:04.870Z,14.63
2023-02-09T03:42:07.410Z,15.77
2023-02-09T04:33:14.737Z,14.45
2023-02-09T04:36:17.012Z,12.87
2023-02-09T04:39:19.252Z,13.77
2023-02-09T04:42:21.383Z,14.02
2023-02-09T04:45:23.456Z,14.50
2023-02-09T04:48:27.132Z,13.02
2023-02-09T04:51:29.504Z,13.80
2023-02-09T04:54:31.856Z,14.02
2023-02-09T04:57:52.835Z,14.52
2023-02-09T05:00:56.048Z,14.13
2023-02-09T05:03:58.965Z,15.15
2023-02-09T05:07:01.191Z,14.20
2023-02-09T05:10:03.589Z,14.73
2023-02-09T05:13:05.674Z,14.10
2023-02-09T05:16:12.003Z,13.73
2023-02-09T05:19:14.346Z,13.98
2023-02-09T05:22:16.697Z,14.18
2023-02-09T05:25:18.873Z,14.98
2023-02-09T05:28:21.072Z,14.60
2023-02-09T05:31:23.625Z,14.43
2023-02-09T05:34:25.812Z,14.95
2023-02-09T05:37:28.061Z,15.07
2023-02-09T05:40:30.196Z,14.85
2023-02-09T05:43:32.309Z,14.93
2023-02-09T05:46:34.453Z,15.63
2023-02-09T05:49:36.691Z,16.75
2023-02-09T05:52:38.810Z,14.55
2023-02-09T05:55:40.926Z,16.33
2023-02-09T05:58:43.088Z,14.73
2023-02-09T06:01:45.286Z,16.02
2023-02-09T06:04:47.449Z,15.25
2023-02-09T06:07:49.855Z,14.50
2023-02-09T06:10:52.058Z,14.88
2023-02-09T06:13:54.210Z,13.88
2023-02-09T06:16:56.554Z,15.10
2023-02-09T06:19:58.797Z,16.13
2023-02-09T06:23:01.857Z,15.02
2023-02-09T06:26:08.554Z,19.83
2023-02-09T06:29:13.464Z,21.80
2023-02-09T06:32:15.662Z,18.20
2023-02-09T06:35:17.949Z,18.88
2023-02-09T06:38:20.424Z,18.47
2023-02-09T06:41:22.627Z,18.90
2023-02-09T06:44:24.783Z,18.90
2023-02-09T06:47:26.940Z,23.03
2023-02-09T06:50:29.147Z,18.42
2023-02-09T06:53:31.563Z,19.02
2023-02-09T07:00:47.541Z,16.77
2023-02-09T07:04:01.329Z,15.75
2023-02-09T07:07:25.787Z,15.57
2023-02-09T07:10:52.689Z,14.47
2023-02-09T07:14:24.079Z,14.82
2023-02-09T07:17:31.583Z,14.32
2023-02-09T07:20:33.833Z,14.63
2023-02-09T07:23:37.021Z,14.48
2023-02-09T07:26:39.346Z,14.15
2023-02-09T07:29:41.667Z,14.82
2023-02-09T07:32:48.318Z,14.43
2023-02-09T07:35:50.590Z,14.93
2023-02-09T07:38:52.844Z,13.60
2023-02-09T07:41:55.262Z,13.90
2023-02-09T07:44:58.222Z,15.05
2023-02-09T07:48:00.430Z,14.40
2023-02-09T07:51:02.707Z,14.17
2023-02-09T07:54:07.393Z,14.45
2023-02-09T07:57:13.571Z,15.10
2023-02-09T08:00:17.334Z,14.98
2023-02-09T08:03:32.148Z,14.52
2023-02-09T08:06:49.843Z,15.07
2023-02-09T08:09:57.813Z,14.90
2023-02-09T08:13:00.711Z,14.13
2023-02-09T08:16:04.951Z,14.00
2023-02-09T08:19:15.495Z,14.07
2023-02-09T08:22:20.329Z,13.73
2023-02-09T08:25:24.437Z,12.85
2023-02-09T08:28:41.718Z,12.50
2023-02-09T08:31:47.602Z,12.23
2023-02-09T08:34:55.550Z,11.68
2023-02-09T08:38:04.891Z,12.45
2023-02-09T08:41:14.266Z,11.95
2023-02-09T08:44:16.453Z,11.93
2023-02-09T08:47:20.685Z,12.52
2023-02-09T08:50:22.892Z,12.50
2023-02-09T08:53:28.552Z,11.33
2023-02-09T08:56:41.350Z,12.55
2023-02-09T08:59:47.504Z,13.18
2023-02-09T09:02:56.961Z,12.35
2023-02-09T09:06:01.274Z,12.90
2023-02-09T09:09:03.790Z,12.57
2023-02-09T09:12:10.796Z,11.93
2023-02-09T09:15:18.386Z,13.00
2023-02-09T09:18:21.237Z,14.15
2023-02-09T09:21:23.541Z,12.45
2023-02-09T09:24:28.218Z,12.23
2023-02-09T09:27:35.268Z,13.43
2023-02-09T09:30:37.973Z,14.20
2023-02-09T09:34:08.244Z,12.13
2023-02-09T09:37:28.960Z,12.57
2023-02-09T09:40:35.295Z,13.32
2023-02-09T09:43:40.928Z,13.27
2023-02-09T09:46:52.850Z,13.00
2023-02-09T09:49:55.179Z,13.48
2023-02-09T09:53:08.497Z,13.00
2023-02-09T09:56:11.424Z,14.47
2023-02-09T09:59:25.267Z,13.38
2023-02-09T10:02:31.339Z,13.18
2023-02-09T10:05:39.460Z,13.43
2023-02-09T10:09:04.842Z,13.45
2023-02-09T10:12:29.184Z,13.20
2023-02-09T10:15:36.331Z,12.98
2023-02-09T10:18:40.660Z,12.33
2023-02-09T10:21:43.079Z,12.60
2023-02-09T10:24:48.598Z,12.73
2023-02-09T10:28:06.551Z,11.97
2023-02-09T10:31:23.644Z,12.02
2023-02-09T10:34:39.821Z,11.80
2023-02-09T10:37:43.870Z,11.80
2023-02-09T10:40:49.477Z,10.75
2023-02-09T10:43:52.639Z,10.75
2023-02-09T10:47:20.116Z,10.68
2023-02-09T10:50:26.743Z,9.67
2023-02-09T10:53:39.169Z,10.32
2023-02-09T10:56:41.341Z,10.07
2023-02-09T10:59:43.773Z,10.50
2023-02-09T11:02:54.315Z,9.40
2023-02-09T11:09:55.664Z,9.80
2023-02-09T11:13:00.054Z,9.63
2023-02-09T11:16:10.071Z,10.20
2023-02-09T11:19:30.435Z,10.00
2023-02-09T11:22:47.344Z,9.23
2023-02-09T11:26:02.951Z,8.73
2023-02-09T11:29:27.431Z,9.57
2023-02-09T11:33:07.059Z,9.40
2023-02-09T11:36:14.173Z,10.23
2023-02-09T11:40:22.659Z,9.65
2023-02-09T11:43:39.617Z,9.50
2023-02-09T11:46:48.280Z,10.02
2023-02-09T11:49:54.646Z,9.80
2023-02-09T11:53:00.812Z,9.75
2023-02-09T11:56:06.487Z,11.10
2023-02-09T11:59:27.940Z,9.93
2023-02-09T12:02:53.052Z,9.57
2023-02-09T12:05:56.914Z,9.70
2023-02-09T12:09:15.878Z,9.88
2023-02-09T12:12:40.689Z,10.93
2023-02-09T12:15:50.095Z,9.75
2023-02-09T12:19:01.561Z,10.02
2023-02-09T12:22:33.946Z,10.60
2023-02-09T12:25:56.407Z,9.50
2023-02-09T12:29:22.549Z,10.23
2023-02-09T12:32:33.014Z,9.48
2023-02-09T12:35:40.092Z,9.52
2023-02-09T12:39:03.861Z,9.60
2023-02-09T12:42:09.516Z,8.93
2023-02-09T12:49:39.863Z,9.27
2023-02-09T12:53:22.540Z,9.18
2023-02-09T12:56:30.584Z,9.13
2023-02-09T12:59:38.124Z,11.05
2023-02-09T13:02:58.538Z,9.93
2023-02-09T13:06:02.447Z,9.88
2023-02-09T13:09:11.801Z,10.32
2023-02-09T13:12:18.674Z,9.70
2023-02-09T13:15:22.954Z,9.52
2023-02-09T13:18:28.464Z,10.02
2023-02-09T13:21:45.432Z,9.95
2023-02-09T13:24:58.882Z,10.18
2023-02-09T13:28:19.829Z,9.63
2023-02-09T13:31:52.467Z,10.02
2023-02-09T13:35:09.759Z,8.73
2023-02-09T13:38:18.644Z,9.43
2023-02-09T13:41:31.205Z,8.80
2023-02-09T13:44:33.970Z,10.63
2023-02-09T13:47:44.517Z,9.20
2023-02-09T13:50:47.355Z,8.57
2023-02-09T13:54:01.418Z,8.65
2023-02-09T13:57:23.935Z,8.82
2023-02-09T14:00:58.973Z,7.97
2023-02-09T14:04:27.486Z,8.07
2023-02-09T14:12:27.714Z,8.75
2023-02-09T14:16:12.119Z,7.40
2023-02-09T14:19:47.339Z,8.43
2023-02-09T14:23:15.000Z,7.22
2023-02-09T14:26:22.353Z,7.63
2023-02-09T14:29:29.061Z,7.38
2023-02-09T14:32:40.324Z,8.10
2023-02-09T14:36:07.700Z,8.52
2023-02-09T14:39:21.380Z,8.82
2023-02-09T14:42:48.828Z,8.30
2023-02-09T14:45:59.906Z,8.55
2023-02-09T14:49:02.071Z,7.80
2023-02-09T14:52:10.636Z,8.10
2023-02-09T14:55:18.677Z,8.50
2023-02-09T14:58:28.530Z,9.02
2023-02-09T15:01:30.744Z,8.85
2023-02-09T15:04:33.016Z,9.10
2023-02-09T15:07:37.459Z,9.82
2023-02-09T15:10:44.305Z,8.73
2023-02-09T15:13:47.541Z,8.43
2023-02-09T15:16:50.551Z,8.10
2023-02-09T15:19:52.731Z,7.95
2023-02-09T15:22:55.745Z,8.40
2023-02-09T15:25:58.748Z,8.73
2023-02-09T15:29:01.103Z,7.97
2023-02-09T15:32:03.357Z,8.73
2023-02-09T15:35:05.692Z,8.88
2023-02-09T15:38:13.159Z,8.95
2023-02-09T15:41:36.070Z,9.30
2023-02-09T15:44:57.192Z,10.23
2023-02-09T15:47:59.628Z,11.68
2023-02-09T15:51:02.167Z,13.60
2023-02-09T15:54:12.087Z,15.07
2023-02-09T15:57:15.038Z,17.75
2023-02-09T16:00:21.964Z,23.10
2023-02-09T16:03:24.338Z,17.17
2023-02-09T16:06:26.502Z,16.02
2023-02-09T16:09:29.469Z,14.35
2023-02-09T16:12:31.651Z,13.45
2023-02-09T16:15:39.234Z,12.17
2023-02-09T16:18:41.388Z,11.40
2023-02-09T16:21:49.694Z,9.70
2023-02-09T16:24:52.094Z,9.57
2023-02-09T16:27:55.536Z,9.73
2023-02-09T16:30:58.299Z,10.05
2023-02-09T16:34:00.535Z,9.57
2023-02-09T16:37:02.727Z,9.82
2023-02-09T16:40:17.417Z,10.65
2023-02-09T16:43:20.306Z,9.88
2023-02-09T16:46:22.491Z,9.73
2023-02-09T16:49:40.489Z,9.65
2023-02-09T16:52:43.432Z,9.48
2023-02-09T16:55:48.888Z,9.77
2023-02-09T16:58:51.820Z,10.70
2023-02-09T17:01:54.398Z,11.23
2023-02-09T17:04:58.099Z,11.25
2023-02-09T17:08:22.945Z,11.30
2023-02-09T17:11:27.002Z,12.45
2023-02-09T17:14:29.176Z,12.63
2023-02-09T17:17:31.841Z,12.23
2023-02-09T17:20:42.134Z,12.90
2023-02-09T17:23:44.534Z,11.63
2023-02-09T17:26:46.731Z,11.97
2023-02-09T17:29:49.045Z,11.65
2023-02-09T17:32:59.135Z,11.57
2023-02-09T17:39:24.346Z,12.13
2023-02-09T17:42:30.493Z,12.10
2023-02-09T17:45:35.427Z,11.45
2023-02-09T17:48:38.164Z,12.30
2023-02-09T17:51:41.524Z,12.38
2023-02-09T17:54:43.786Z,11.73
2023-02-09T17:57:46.408Z,11.70
2023-02-09T18:00:49.222Z,12.48
2023-02-09T18:03:51.509Z,12.52
2023-02-09T18:06:54.990Z,12.77
2023-02-09T18:09:58.126Z,12.65
2023-02-09T18:13:00.296Z,13.23
2023-02-09T18:16:03.405Z,12.98
2023-02-09T18:19:08.884Z,14.07
2023-02-09T18:22:17.144Z,14.20
2023-02-09T18:25:34.394Z,14.60
2023-02-09T18:28:39.410Z,15.47
2023-02-09T18:31:41.654Z,14.50
2023-02-09T18:34:43.927Z,15.63
2023-02-09T18:37:47.142Z,15.48
2023-02-09T18:40:49.479Z,15.68
2023-02-09T18:43:54.114Z,16.95
2023-02-09T18:46:57.680Z,22.90
2023-02-09T18:49:59.901Z,21.60
2023-02-09T18:53:03.417Z,20.67
2023-02-09T18:56:05.906Z,17.98
2023-02-09T18:59:08.615Z,21.40
2023-02-09T19:02:11.952Z,21.05
2023-02-09T19:05:16.767Z,21.48
2023-02-09T19:08:18.968Z,20.90
2023-02-09T19:11:23.431Z,19.67
2023-02-09T19:14:37.826Z,19.63
2023-02-09T19:17:40.489Z,18.55
2023-02-09T19:20:42.647Z,18.83
2023-02-09T19:23:44.884Z,18.10
2023-02-09T19:26:47.009Z,18.13
2023-02-09T19:29:53.380Z,17.53
2023-02-09T19:32:57.807Z,18.05
2023-02-09T19:36:00.352Z,18.00
2023-02-09T19:39:02.686Z,17.63
2023-02-09T19:42:05.859Z,16.67
2023-02-09T19:45:11.031Z,19.00
2023-02-09T19:48:13.162Z,18.00
2023-02-09T19:51:15.422Z,17.80
2023-02-09T19:54:19.974Z,18.55
2023-02-09T19:57:22.931Z,19.13
2023-02-09T20:00:25.188Z,20.33
2023-02-09T20:03:29.784Z,21.58
2023-02-09T20:06:33.928Z,21.20
2023-02-09T20:09:36.355Z,21.08
2023-02-09T20:12:38.602Z,21.13
2023-02-09T20:15:42.275Z,20.95
2023-02-09T20:18:46.663Z,21.60
2023-02-09T20:21:49.128Z,21.93
2023-02-09T20:24:51.396Z,21.33
2023-02-09T20:27:56.039Z,21.83
2023-02-09T20:30:58.231Z,21.20
2023-02-09T20:34:03.513Z,21.90
2023-02-09T20:37:05.669Z,22.65
2023-02-09T20:40:11.472Z,24.67
2023-02-09T20:43:32.486Z,24.30
2023-02-09T20:46:53.240Z,26.88
2023-02-09T20:50:00.156Z,27.00
2023-02-09T20:53:02.965Z,27.23
2023-02-09T20:56:05.435Z,28.40
2023-02-09T20:59:08.034Z,27.08
2023-02-09T21:02:12.575Z,27.07
2023-02-09T21:05:14.874Z,27.73
2023-02-09T21:08:16.996Z,27.67
2023-02-09T21:11:30.128Z,27.48
2023-02-09T21:14:41.741Z,26.27
2023-02-09T21:17:48.431Z,27.40
2023-02-09T21:20:53.859Z,25.50
2023-02-09T21:23:56.081Z,26.27
2023-02-09T21:27:00.622Z,25.88
2023-02-09T21:30:03.161Z,25.58
2023-02-09T21:33:05.302Z,26.03
2023-02-09T21:36:07.866Z,25.65
2023-02-09T21:39:10.035Z,26.05
2023-02-09T21:42:32.629Z,26.88
2023-02-09T21:45:37.999Z,26.30
2023-02-09T21:48:40.175Z,28.83
2023-02-09T21:51:42.812Z,27.15
2023-02-09T21:54:44.975Z,27.73
2023-02-09T21:57:47.932Z,28.10
2023-02-09T22:00:56.812Z,26.85
2023-02-09T22:03:59.153Z,29.37
2023-02-09T22:07:01.367Z,29.90
2023-02-09T22:10:04.263Z,30.08
2023-02-09T22:13:08.967Z,29.95
2023-02-09T22:16:12.410Z,30.45
2023-02-09T22:19:14.811Z,32.78
2023-02-09T22:22:16.970Z,31.55
2023-02-09T22:25:19.275Z,30.87
2023-02-09T22:28:21.383Z,31.50
2023-02-09T22:31:23.619Z,32.42
2023-02-09T22:34:25.894Z,34.37
2023-02-09T22:37:28.070Z,32.58
2023-02-09T22:40:30.203Z,32.72
2023-02-09T22:43:33.215Z,31.63
2023-02-09T22:46:38.486Z,33.53
2023-02-09T22:49:41.580Z,32.38
2023-02-09T22:52:43.795Z,32.00
2023-02-09T22:55:48.267Z,30.70
2023-02-09T22:58:53.263Z,30.52
2023-02-09T23:01:55.378Z,31.20
2023-02-09T23:04:57.575Z,31.93
2023-02-09T23:07:59.717Z,31.35
2023-02-09T23:11:07.639Z,31.88
2023-02-09T23:14:11.146Z,31.33
2023-02-09T23:17:13.909Z,30.00
2023-02-09T23:20:16.189Z,30.58
2023-02-09T23:23:18.534Z,30.40
2023-02-09T23:26:21.586Z,30.57
2023-02-09T23:29:23.759Z,31.27
2023-02-09T23:32:25.996Z,30.58
2023-02-09T23:35:28.175Z,32.80
2023-02-09T23:38:30.555Z,32.22
2023-02-09T23:41:33.730Z,33.00
2023-02-09T23:44:35.912Z,33.65
2023-02-09T23:47:38.051Z,33.50
2023-02-09T23:50:40.236Z,31.45
2023-02-09T23:53:42.333Z,32.72
2023-02-09T23:56:46.460Z,30.23
2023-02-09T23:59:48.861Z,33.40
